Time;durP1;ratioP1;P1;durP2;ratioP2;P2;SDS_P1;SDS_P2;PMS_P1;PMS_P2;Temp;Humidity;BMP_temperature;BMP_pressure;BME280_temperature;BME280_humidity;BME280_pressure;Samples;Min_cycle;Max_cycle;Signal;HPM_P1;HPM_P2
2021/11/10 00:02:04;;;;;;;13.93;7.90;;;4.80;99.90;;;;;;5058682;28;20210;-79
2021/11/10 00:04:30;;;;;;;19.23;9.18;;;5.00;99.90;;;;;;5058152;28;20206;-79
2021/11/10 00:06:57;;;;;;;12.50;6.90;;;4.80;99.90;;;;;;5056806;28;20240;-79
2021/11/10 00:09:24;;;;;;;19.40;9.65;;;5.00;99.90;;;;;;5057133;28;20230;-79
2021/11/10 00:11:52;;;;;;;14.32;8.93;;;4.90;99.90;;;;;;5057417;28;20212;-79
2021/11/10 00:14:19;;;;;;;15.52;7.45;;;4.90;99.90;;;;;;5057784;28;20279;-79
2021/11/10 00:16:46;;;;;;;12.48;8.50;;;4.70;99.90;;;;;;5057173;28;20261;-79
2021/11/10 00:19:14;;;;;;;13.18;8.52;;;4.70;99.90;;;;;;5057028;28;20209;-79
2021/11/10 00:21:41;;;;;;;12.73;8.27;;;4.80;99.90;;;;;;5056481;28;20206;-79
2021/11/10 00:24:08;;;;;;;15.00;8.75;;;4.70;99.90;;;;;;5057362;28;20222;-80
2021/11/10 00:26:35;;;;;;;17.42;8.68;;;4.70;99.90;;;;;;5056970;28;20237;-78
2021/11/10 00:29:02;;;;;;;12.98;7.80;;;5.00;99.90;;;;;;5057084;28;20210;-78
2021/11/10 00:31:30;;;;;;;13.00;8.18;;;4.70;99.90;;;;;;5056488;28;20206;-78
2021/11/10 00:33:56;;;;;;;12.15;9.40;;;4.80;99.90;;;;;;5057278;28;20296;-77
2021/11/10 00:36:25;;;;;;;14.88;8.85;;;4.70;99.90;;;;;;5060681;28;20226;-77
2021/11/10 00:38:51;;;;;;;14.02;8.45;;;4.80;99.90;;;;;;5056675;28;20206;-78
2021/11/10 00:41:18;;;;;;;10.80;7.63;;;4.70;99.90;;;;;;5055899;28;20316;-80
2021/11/10 00:43:46;;;;;;;16.95;9.85;;;4.50;99.90;;;;;;5057409;28;20210;-78
2021/11/10 00:46:13;;;;;;;14.35;8.50;;;4.80;99.90;;;;;;5057235;28;20291;-78
2021/11/10 00:48:40;;;;;;;19.10;8.70;;;4.70;99.90;;;;;;5056499;28;20217;-78
2021/11/10 00:51:06;;;;;;;13.95;8.23;;;4.70;99.90;;;;;;5055950;28;20666;-78
2021/11/10 00:53:35;;;;;;;12.23;7.70;;;4.60;99.90;;;;;;5055978;28;20206;-78
2021/11/10 00:56:02;;;;;;;12.18;8.60;;;4.80;99.90;;;;;;5056399;28;20273;-78
2021/11/10 00:58:29;;;;;;;13.25;8.95;;;4.80;99.90;;;;;;5056078;28;20206;-78
2021/11/10 01:00:56;;;;;;;16.30;8.90;;;4.80;99.90;;;;;;5056253;28;20248;-78
2021/11/10 01:03:27;;;;;;;12.10;8.50;;;4.50;99.90;;;;;;5056104;28;20301;-78
2021/11/10 01:05:53;;;;;;;14.70;9.35;;;4.60;99.90;;;;;;5056171;28;20256;-79
2021/11/10 01:08:21;;;;;;;17.50;8.48;;;4.60;99.90;;;;;;5056104;28;20801;-78
2021/11/10 01:10:49;;;;;;;12.65;8.30;;;4.60;99.90;;;;;;5057969;28;20206;-78
2021/11/10 01:13:16;;;;;;;20.58;8.80;;;4.50;99.90;;;;;;5060048;28;20210;-78
2021/11/10 01:15:43;;;;;;;14.13;8.52;;;4.40;99.90;;;;;;5055292;28;20198;-78
2021/11/10 01:18:10;;;;;;;13.82;7.97;;;4.60;99.90;;;;;;5055835;28;20229;-78
2021/11/10 01:20:38;;;;;;;13.93;8.90;;;4.70;99.90;;;;;;5056205;28;20230;-78
2021/11/10 01:23:06;;;;;;;15.63;8.30;;;4.80;99.90;;;;;;5056316;28;20206;-79
2021/11/10 01:25:33;;;;;;;17.67;9.48;;;4.80;99.90;;;;;;5062365;28;20220;-78
2021/11/10 01:28:01;;;;;;;11.98;7.50;;;4.90;99.90;;;;;;5063798;28;20256;-78
2021/11/10 01:30:28;;;;;;;12.73;9.00;;;4.90;99.90;;;;;;5061937;28;20206;-78
2021/11/10 01:32:55;;;;;;;15.98;8.77;;;4.60;99.90;;;;;;5072643;28;20217;-78
2021/11/10 01:35:22;;;;;;;15.18;9.88;;;4.50;99.90;;;;;;5059743;28;20206;-79
2021/11/10 01:37:49;;;;;;;16.90;9.35;;;4.60;99.90;;;;;;5063690;28;20583;-79
2021/11/10 01:40:18;;;;;;;15.43;8.45;;;4.40;99.90;;;;;;5059695;28;20304;-79
2021/11/10 01:42:46;;;;;;;14.57;9.07;;;4.50;99.90;;;;;;5057182;28;20292;-79
2021/11/10 01:45:17;;;;;;;17.17;8.70;;;4.30;99.90;;;;;;5056109;28;20213;-80
2021/11/10 01:47:44;;;;;;;14.68;9.50;;;4.40;99.90;;;;;;5055961;28;20268;-80
2021/11/10 01:50:14;;;;;;;13.98;8.18;;;4.60;99.90;;;;;;5055373;28;20547;-80
2021/11/10 01:52:41;;;;;;;15.10;8.35;;;4.40;99.90;;;;;;5055610;28;20206;-80
2021/11/10 01:55:09;;;;;;;16.13;9.82;;;4.50;99.90;;;;;;5055474;28;20213;-78
2021/11/10 01:57:36;;;;;;;19.13;9.68;;;4.50;99.90;;;;;;5055261;28;20226;-78
2021/11/10 02:00:10;;;;;;;17.05;9.80;;;4.30;99.90;;;;;;5055140;28;20232;-78
2021/11/10 02:02:41;;;;;;;15.40;9.80;;;4.50;99.90;;;;;;5058777;28;20185;-78
2021/11/10 02:05:12;;;;;;;16.30;8.65;;;4.20;99.90;;;;;;5055452;28;20198;-78
2021/11/10 02:07:39;;;;;;;13.98;8.52;;;4.30;99.90;;;;;;5054677;28;20250;-78
2021/11/10 02:10:08;;;;;;;13.13;9.10;;;4.40;99.90;;;;;;5055276;28;20293;-79
2021/11/10 02:12:36;;;;;;;20.40;10.63;;;4.20;99.90;;;;;;5054933;28;20686;-78
2021/11/10 02:15:05;;;;;;;14.55;9.35;;;4.20;99.90;;;;;;5059109;28;20647;-78
2021/11/10 02:17:34;;;;;;;13.13;9.98;;;4.20;99.90;;;;;;5055045;28;20726;-78
2021/11/10 02:20:02;;;;;;;15.38;9.63;;;4.40;99.90;;;;;;5054928;28;20601;-79
2021/11/10 02:22:31;;;;;;;14.75;9.52;;;4.50;99.90;;;;;;5056211;28;20213;-79
2021/11/10 02:24:58;;;;;;;14.88;9.57;;;4.50;99.90;;;;;;5054985;28;20674;-79
2021/11/10 02:27:32;;;;;;;12.40;8.43;;;4.20;99.90;;;;;;5055004;28;20237;-79
2021/11/10 02:29:59;;;;;;;13.10;8.43;;;4.40;99.90;;;;;;5054777;28;20572;-79
2021/11/10 02:32:27;;;;;;;17.13;9.95;;;4.30;99.90;;;;;;5054768;28;20210;-79
2021/11/10 02:34:53;;;;;;;14.50;10.07;;;4.40;99.90;;;;;;5054901;28;20232;-78
2021/11/10 02:37:21;;;;;;;14.30;8.88;;;4.20;99.90;;;;;;5054400;28;20226;-78
2021/11/10 02:39:51;;;;;;;13.13;8.63;;;4.30;99.90;;;;;;5059642;28;20217;-79
2021/11/10 02:42:20;;;;;;;14.15;8.32;;;4.40;99.90;;;;;;5055429;28;20558;-79
2021/11/10 02:44:49;;;;;;;19.08;9.00;;;4.10;99.90;;;;;;5060256;28;20308;-79
2021/11/10 02:47:16;;;;;;;13.63;9.10;;;4.20;99.90;;;;;;5058476;28;20673;-79
2021/11/10 02:49:44;;;;;;;17.10;9.77;;;4.10;99.90;;;;;;5054866;28;20296;-78
2021/11/10 02:52:14;;;;;;;17.63;8.95;;;4.30;99.90;;;;;;5054597;28;20261;-78
2021/11/10 02:54:43;;;;;;;17.45;10.15;;;4.30;99.90;;;;;;5054608;28;20190;-78
2021/11/10 02:57:11;;;;;;;14.27;9.68;;;4.30;99.90;;;;;;5054419;28;20226;-77
2021/11/10 02:59:39;;;;;;;21.45;10.85;;;4.30;99.90;;;;;;5054712;28;20206;-79
2021/11/10 03:02:06;;;;;;;13.55;9.38;;;4.30;99.90;;;;;;5054991;28;20729;-79
2021/11/10 03:04:35;;;;;;;19.52;10.60;;;4.10;99.90;;;;;;5055063;28;20230;-79
2021/11/10 03:07:03;;;;;;;16.58;11.23;;;4.20;99.90;;;;;;5055320;28;20620;-79
2021/11/10 03:09:32;;;;;;;17.05;9.05;;;4.10;99.90;;;;;;5055811;28;20571;-79
2021/11/10 03:12:02;;;;;;;17.10;10.55;;;4.30;99.90;;;;;;5054453;28;20206;-79
2021/11/10 03:14:33;;;;;;;19.83;11.15;;;4.20;99.90;;;;;;5054801;28;20221;-78
2021/11/10 03:17:00;;;;;;;14.98;9.55;;;4.20;99.90;;;;;;5053810;28;20690;-78
2021/11/10 03:19:28;;;;;;;17.33;11.20;;;4.30;99.90;;;;;;5054111;28;20212;-79
2021/11/10 03:21:54;;;;;;;18.50;11.77;;;4.10;99.90;;;;;;5054613;28;20229;-78
2021/11/10 03:24:22;;;;;;;20.58;11.50;;;4.20;99.90;;;;;;5054337;28;20229;-78
2021/11/10 03:26:48;;;;;;;18.27;11.35;;;4.00;99.90;;;;;;5059201;28;20321;-78
2021/11/10 03:29:15;;;;;;;14.68;10.57;;;4.10;99.90;;;;;;5065115;28;20293;-79
2021/11/10 03:31:44;;;;;;;16.55;10.93;;;4.00;99.90;;;;;;5065849;28;20202;-78
2021/11/10 03:34:12;;;;;;;17.95;11.65;;;4.20;99.90;;;;;;5063290;28;20201;-78
2021/11/10 03:36:40;;;;;;;17.30;12.30;;;4.40;99.90;;;;;;5059770;28;20233;-78
2021/11/10 03:39:09;;;;;;;18.25;12.15;;;4.10;99.90;;;;;;5058357;28;20210;-79
2021/11/10 03:41:36;;;;;;;19.08;12.50;;;4.00;99.90;;;;;;5071028;28;20230;-80
2021/11/10 03:44:04;;;;;;;17.17;11.43;;;3.90;99.90;;;;;;5064873;28;20214;-78
2021/11/10 03:46:32;;;;;;;16.30;11.68;;;4.10;99.90;;;;;;5068564;28;20321;-79
2021/11/10 03:49:00;;;;;;;20.77;11.93;;;4.20;99.90;;;;;;5060378;28;20206;-79
2021/11/10 03:51:27;;;;;;;23.13;12.02;;;4.10;99.90;;;;;;5062403;28;20208;-79
2021/11/10 03:53:55;;;;;;;23.73;12.10;;;4.50;99.90;;;;;;5062178;28;20263;-79
2021/11/10 03:56:22;;;;;;;18.75;10.82;;;4.40;99.90;;;;;;5057874;28;20230;-79
2021/11/10 03:58:49;;;;;;;29.73;13.20;;;4.50;99.90;;;;;;5057343;28;20213;-79
2021/11/10 04:01:16;;;;;;;19.08;12.00;;;4.30;99.90;;;;;;5056933;28;20226;-78
2021/11/10 04:03:43;;;;;;;22.17;11.95;;;4.20;99.90;;;;;;5056768;28;20210;-78
2021/11/10 04:06:12;;;;;;;19.15;12.27;;;4.30;99.90;;;;;;5058400;28;20324;-79
2021/11/10 04:08:39;;;;;;;18.45;12.35;;;4.30;99.90;;;;;;5058928;28;20566;-78
2021/11/10 04:11:06;;;;;;;21.90;11.48;;;4.40;99.90;;;;;;5057717;28;20193;-78
2021/11/10 04:13:33;;;;;;;17.10;11.30;;;4.20;99.90;;;;;;5057323;28;20216;-78
2021/11/10 04:16:01;;;;;;;23.05;14.02;;;4.30;99.90;;;;;;5061740;28;20693;-78
2021/11/10 04:18:32;;;;;;;22.10;12.20;;;4.50;99.90;;;;;;5061622;28;20217;-78
2021/11/10 04:20:59;;;;;;;22.38;13.18;;;4.30;99.90;;;;;;5060110;28;20214;-80
2021/11/10 04:23:28;;;;;;;17.80;12.00;;;4.60;99.90;;;;;;5062072;28;20209;-79
2021/11/10 04:25:55;;;;;;;17.70;11.25;;;4.50;99.90;;;;;;5060135;28;20209;-78
2021/11/10 04:28:22;;;;;;;22.75;12.63;;;4.60;99.90;;;;;;5059357;28;20694;-80
2021/11/10 04:30:51;;;;;;;23.65;12.60;;;4.70;99.90;;;;;;5057166;28;20213;-80
2021/11/10 04:33:18;;;;;;;18.67;13.18;;;4.50;99.90;;;;;;5060454;28;20265;-79
2021/11/10 04:35:45;;;;;;;17.38;11.90;;;4.50;99.90;;;;;;5066957;28;20301;-79
2021/11/10 04:38:12;;;;;;;20.15;13.02;;;4.30;99.90;;;;;;5057889;28;20222;-79
2021/11/10 04:40:40;;;;;;;21.75;12.73;;;4.20;99.90;;;;;;5056413;28;20708;-78
2021/11/10 04:43:07;;;;;;;19.58;12.18;;;4.10;99.90;;;;;;5056811;28;20286;-79
2021/11/10 04:45:36;;;;;;;21.92;13.63;;;4.30;99.90;;;;;;5056821;28;20216;-79
2021/11/10 04:48:04;;;;;;;19.27;12.18;;;4.60;99.90;;;;;;5056137;28;20241;-79
2021/11/10 04:50:33;;;;;;;17.20;11.32;;;4.60;99.90;;;;;;5057199;28;20218;-79
2021/11/10 04:53:00;;;;;;;21.65;12.70;;;4.40;99.90;;;;;;5057010;28;20210;-79
2021/11/10 04:55:28;;;;;;;17.60;11.85;;;4.50;99.90;;;;;;5058791;28;20202;-79
2021/11/10 04:57:56;;;;;;;19.08;12.52;;;4.40;99.90;;;;;;5057156;28;20236;-79
2021/11/10 05:00:23;;;;;;;21.52;12.50;;;4.40;99.90;;;;;;5057318;28;20210;-79
2021/11/10 05:02:50;;;;;;;16.15;12.32;;;4.40;99.90;;;;;;5056376;28;20211;-79
2021/11/10 05:05:17;;;;;;;19.83;11.55;;;4.30;99.90;;;;;;5056625;28;20216;-79
2021/11/10 05:07:44;;;;;;;17.55;11.27;;;4.30;99.90;;;;;;5080075;22;20768;-79
2021/11/10 05:10:11;;;;;;;16.98;11.15;;;4.40;99.90;;;;;;5057550;28;20210;-79
2021/11/10 05:12:38;;;;;;;21.85;12.32;;;4.70;99.90;;;;;;5057473;28;20198;-79
2021/11/10 05:15:09;;;;;;;19.73;11.38;;;4.60;99.90;;;;;;5057449;28;20235;-79
2021/11/10 05:17:36;;;;;;;20.48;12.25;;;4.40;99.90;;;;;;5056897;28;20257;-79
2021/11/10 05:20:04;;;;;;;20.63;11.48;;;4.30;99.90;;;;;;5057650;28;20234;-79
2021/11/10 05:22:31;;;;;;;16.40;10.80;;;4.20;99.90;;;;;;5056856;28;20222;-79
2021/11/10 05:24:58;;;;;;;17.38;12.35;;;4.20;99.90;;;;;;5057497;28;20206;-79
2021/11/10 05:27:25;;;;;;;18.88;11.82;;;4.20;99.90;;;;;;5057933;28;20276;-79
2021/11/10 05:29:52;;;;;;;18.80;12.60;;;3.90;99.90;;;;;;5057469;28;20324;-80
2021/11/10 05:32:20;;;;;;;18.65;11.77;;;4.00;99.90;;;;;;5057049;28;20292;-79
2021/11/10 05:34:48;;;;;;;18.40;11.40;;;3.80;99.90;;;;;;5062209;28;20293;-79
2021/11/10 05:37:15;;;;;;;21.10;12.00;;;4.10;99.90;;;;;;5057114;28;20229;-79
2021/11/10 05:39:42;;;;;;;27.63;11.60;;;3.90;99.90;;;;;;5057021;28;20209;-80
2021/11/10 05:42:09;;;;;;;21.67;11.52;;;4.10;99.90;;;;;;5056704;28;20222;-79
2021/11/10 05:44:36;;;;;;;21.92;12.73;;;4.10;99.90;;;;;;5057018;28;20288;-79
2021/11/10 05:47:03;;;;;;;17.77;12.18;;;4.00;99.90;;;;;;5056216;28;20232;-79
2021/11/10 05:49:31;;;;;;;22.00;12.50;;;4.00;99.90;;;;;;5056884;28;20202;-80
2021/11/10 05:51:58;;;;;;;19.80;11.65;;;3.90;99.90;;;;;;5057296;28;20209;-79
2021/11/10 05:54:24;;;;;;;17.83;11.98;;;3.90;99.90;;;;;;5060915;28;20568;-79
2021/11/10 05:56:52;;;;;;;17.73;11.45;;;3.90;99.90;;;;;;5060543;28;20290;-79
2021/11/10 05:59:18;;;;;;;16.15;11.38;;;3.90;99.90;;;;;;5068824;28;20205;-79
2021/11/10 06:01:45;;;;;;;19.10;12.10;;;3.90;99.90;;;;;;5062479;28;20602;-79
2021/11/10 06:04:12;;;;;;;20.27;12.10;;;3.90;99.90;;;;;;5057695;28;20293;-79
2021/11/10 06:06:41;;;;;;;17.48;11.05;;;4.00;99.90;;;;;;5059185;28;20234;-78
2021/11/10 06:09:08;;;;;;;22.33;13.00;;;4.10;99.90;;;;;;5057777;28;20210;-79
2021/11/10 06:11:34;;;;;;;22.05;12.88;;;4.00;99.90;;;;;;5055879;28;20214;-79
2021/11/10 06:14:01;;;;;;;16.33;11.77;;;4.10;99.90;;;;;;5055823;28;20289;-79
2021/11/10 06:16:29;;;;;;;18.90;12.75;;;3.70;99.90;;;;;;5058032;28;20296;-79
2021/11/10 06:18:56;;;;;;;22.65;12.88;;;3.70;99.90;;;;;;5058965;28;20206;-79
2021/11/10 06:21:23;;;;;;;19.65;12.50;;;3.50;99.90;;;;;;5058811;28;20228;-79
2021/11/10 06:23:51;;;;;;;21.50;12.10;;;3.60;99.90;;;;;;5058950;28;20242;-80
2021/11/10 06:26:18;;;;;;;18.45;13.18;;;3.90;99.90;;;;;;5070240;28;20232;-80
2021/11/10 06:28:45;;;;;;;20.48;11.38;;;3.90;99.90;;;;;;5060150;28;20198;-82
2021/11/10 06:31:11;;;;;;;18.90;13.40;;;3.70;99.90;;;;;;5060997;28;20206;-86
2021/11/10 06:33:42;;;;;;;18.48;11.23;;;3.90;99.90;;;;;;5073934;28;20212;-88
2021/11/10 06:36:12;;;;;;;21.65;11.93;;;4.00;99.90;;;;;;5072765;28;20190;-85
2021/11/10 06:38:39;;;;;;;17.98;12.07;;;4.10;99.90;;;;;;5071997;28;20260;-86
2021/11/10 06:41:07;;;;;;;23.60;11.48;;;3.90;99.90;;;;;;5070656;28;20217;-86
2021/11/10 06:43:35;;;;;;;22.73;12.18;;;3.80;99.90;;;;;;5067117;28;20217;-85
2021/11/10 06:46:02;;;;;;;21.42;12.50;;;4.00;99.90;;;;;;5064925;28;20209;-88
2021/11/10 06:48:30;;;;;;;21.60;11.77;;;3.90;99.90;;;;;;5057288;28;20706;-87
2021/11/10 06:50:58;;;;;;;17.75;12.05;;;3.80;99.90;;;;;;5060175;28;20662;-84
2021/11/10 06:53:25;;;;;;;21.23;11.90;;;3.80;99.90;;;;;;5070262;28;20250;-84
2021/11/10 06:55:52;;;;;;;18.83;12.05;;;3.80;99.90;;;;;;5076236;28;20195;-82
2021/11/10 06:58:20;;;;;;;19.17;12.32;;;4.00;99.90;;;;;;5076993;28;20210;-85
2021/11/10 07:00:55;;;;;;;21.85;13.00;;;4.00;99.90;;;;;;5078879;28;20230;-84
2021/11/10 07:03:22;;;;;;;22.48;12.90;;;4.00;99.90;;;;;;5072588;28;20633;-83
2021/11/10 07:05:49;;;;;;;18.67;12.20;;;4.30;99.90;;;;;;5075884;28;20194;-82
2021/11/10 07:08:16;;;;;;;20.20;13.07;;;4.30;99.90;;;;;;5075795;28;20257;-82
2021/11/10 07:10:43;;;;;;;25.77;12.85;;;4.10;99.90;;;;;;5072178;28;20206;-83
2021/11/10 07:13:10;;;;;;;22.45;12.77;;;4.20;99.90;;;;;;5071344;28;20198;-85
2021/11/10 07:15:39;;;;;;;23.88;14.40;;;4.50;99.90;;;;;;5067139;28;20285;-86
2021/11/10 07:18:06;;;;;;;21.33;13.18;;;4.30;99.90;;;;;;5066358;28;20290;-84
2021/11/10 07:20:33;;;;;;;22.13;13.48;;;4.40;99.90;;;;;;5060696;28;20253;-82
2021/11/10 07:23:00;;;;;;;24.48;13.40;;;4.40;99.90;;;;;;5062390;28;20226;-81
2021/11/10 07:25:28;;;;;;;27.48;14.38;;;4.40;99.90;;;;;;5062533;28;20236;-81
2021/11/10 07:27:55;;;;;;;22.98;13.80;;;4.70;99.90;;;;;;5063015;28;20265;-82
2021/11/10 07:30:23;;;;;;;25.23;14.07;;;4.70;99.90;;;;;;5061915;28;20245;-81
2021/11/10 07:32:51;;;;;;;20.45;13.23;;;4.80;99.90;;;;;;5058523;28;20636;-80
2021/11/10 07:35:19;;;;;;;22.13;13.75;;;5.00;99.90;;;;;;5060641;28;20297;-80
2021/11/10 07:37:47;;;;;;;20.80;13.18;;;4.90;99.90;;;;;;5060571;28;20226;-81
2021/11/10 07:40:15;;;;;;;20.42;14.15;;;5.00;99.90;;;;;;5061621;28;20236;-79
2021/11/10 07:42:43;;;;;;;21.80;12.43;;;5.00;99.90;;;;;;5060592;28;20260;-81
2021/11/10 07:45:15;;;;;;;28.25;14.38;;;5.00;99.90;;;;;;5062946;28;20252;-87
2021/11/10 07:47:42;;;;;;;20.83;13.60;;;4.90;99.90;;;;;;5068676;28;20249;-81
2021/11/10 07:50:14;;;;;;;19.77;14.52;;;5.10;99.90;;;;;;5062069;28;20301;-81
2021/11/10 07:52:41;;;;;;;23.70;15.98;;;5.10;99.90;;;;;;5061994;28;20197;-81
2021/11/10 07:55:09;;;;;;;20.75;14.27;;;4.90;99.90;;;;;;5061866;28;20248;-82
2021/11/10 07:57:38;;;;;;;28.38;14.75;;;5.20;99.90;;;;;;5061044;28;20226;-81
2021/11/10 08:00:08;;;;;;;28.35;16.95;;;5.10;99.90;;;;;;5062431;28;20301;-82
2021/11/10 08:02:35;;;;;;;25.45;14.85;;;5.20;99.90;;;;;;5062162;28;20222;-82
2021/11/10 08:05:02;;;;;;;27.48;13.57;;;5.10;99.90;;;;;;5066766;28;20725;-83
2021/11/10 08:07:30;;;;;;;21.75;13.43;;;5.20;99.90;;;;;;5064735;28;20255;-82
2021/11/10 08:09:57;;;;;;;21.30;13.60;;;5.50;99.90;;;;;;5063622;28;20598;-84
2021/11/10 08:12:24;;;;;;;25.90;16.23;;;5.30;99.90;;;;;;5061963;28;20206;-85
2021/11/10 08:14:50;;;;;;;23.77;14.70;;;5.60;99.90;;;;;;5063821;28;20210;-85
2021/11/10 08:17:17;;;;;;;21.67;13.98;;;5.50;99.90;;;;;;5065755;28;20259;-86
2021/11/10 08:19:44;;;;;;;26.85;14.85;;;5.40;99.90;;;;;;5064696;28;20515;-86
2021/11/10 08:22:12;;;;;;;25.27;15.40;;;5.90;99.90;;;;;;5066299;28;20295;-86
2021/11/10 08:24:40;;;;;;;21.98;15.35;;;5.60;99.90;;;;;;5059313;28;20213;-79
2021/11/10 08:27:08;;;;;;;25.48;14.82;;;5.90;99.90;;;;;;5059077;28;20248;-79
2021/11/10 08:29:34;;;;;;;21.52;14.65;;;5.80;99.90;;;;;;5060192;28;20207;-80
2021/11/10 08:32:01;;;;;;;24.00;15.70;;;5.80;99.90;;;;;;5057408;28;20206;-81
2021/11/10 08:34:28;;;;;;;24.45;15.13;;;6.00;99.90;;;;;;5063466;28;20214;-88
2021/11/10 08:36:55;;;;;;;24.80;15.32;;;6.00;99.90;;;;;;5064371;28;20297;-83
2021/11/10 08:39:22;;;;;;;29.42;15.38;;;6.00;99.90;;;;;;5076132;28;20209;-81
2021/11/10 08:41:50;;;;;;;25.85;14.95;;;6.00;99.90;;;;;;5074832;28;20308;-82
2021/11/10 08:44:18;;;;;;;23.95;15.85;;;6.20;99.90;;;;;;5074903;28;20194;-81
2021/11/10 08:46:46;;;;;;;21.77;16.02;;;6.40;99.90;;;;;;5074699;28;20242;-82
2021/11/10 08:49:13;;;;;;;22.80;14.85;;;6.40;99.90;;;;;;5072873;28;20202;-82
2021/11/10 08:51:41;;;;;;;26.25;15.55;;;6.70;99.90;;;;;;5074652;28;20217;-82
2021/11/10 08:54:08;;;;;;;21.35;15.77;;;6.60;99.90;;;;;;5074157;28;20217;-81
2021/11/10 08:56:35;;;;;;;23.40;15.02;;;6.70;99.90;;;;;;5064649;28;20230;-84
2021/11/10 08:59:04;;;;;;;22.80;16.13;;;6.80;99.90;;;;;;5061268;28;20207;-83
2021/11/10 09:01:32;;;;;;;21.45;15.02;;;7.10;99.90;;;;;;5060279;28;20217;-82
2021/11/10 09:03:59;;;;;;;21.38;13.30;;;7.10;99.90;;;;;;5060709;28;20219;-82
2021/11/10 09:06:26;;;;;;;25.63;16.98;;;7.10;99.90;;;;;;5061426;28;20214;-82
2021/11/10 09:08:53;;;;;;;21.73;14.85;;;7.10;99.90;;;;;;5060995;28;20286;-82
2021/11/10 09:11:20;;;;;;;30.00;16.15;;;7.00;99.90;;;;;;5060494;28;20221;-82
2021/11/10 09:13:46;;;;;;;25.63;15.60;;;7.10;99.90;;;;;;5057998;28;20198;-82
2021/11/10 09:16:15;;;;;;;21.52;15.40;;;6.90;99.90;;;;;;5063300;28;20206;-80
2021/11/10 09:18:42;;;;;;;20.98;15.63;;;7.00;99.90;;;;;;5064793;28;20207;-80
2021/11/10 09:21:10;;;;;;;28.50;16.10;;;7.00;99.90;;;;;;5058710;28;20374;-80
2021/11/10 09:23:38;;;;;;;26.27;16.95;;;7.00;99.90;;;;;;5055933;28;20237;-80
2021/11/10 09:26:05;;;;;;;24.42;16.65;;;7.00;99.90;;;;;;5057221;28;20221;-80
2021/11/10 09:28:33;;;;;;;26.73;16.10;;;7.10;99.90;;;;;;5057705;28;20685;-81
2021/11/10 09:31:01;;;;;;;29.02;17.27;;;7.20;99.90;;;;;;5058007;28;20256;-81
2021/11/10 09:33:31;;;;;;;27.75;16.27;;;7.30;99.90;;;;;;5056475;28;20206;-80
2021/11/10 09:35:58;;;;;;;24.13;15.82;;;7.40;99.90;;;;;;5057268;28;20195;-80
2021/11/10 09:38:25;;;;;;;27.98;16.98;;;7.50;99.90;;;;;;5056994;28;20655;-80
2021/11/10 09:40:53;;;;;;;29.23;16.13;;;7.60;99.90;;;;;;5057544;28;20206;-80
2021/11/10 09:43:20;;;;;;;21.05;15.25;;;7.60;99.90;;;;;;5057137;28;20227;-80
2021/11/10 09:45:48;;;;;;;25.67;15.52;;;7.70;99.90;;;;;;5064827;28;20206;-79
2021/11/10 09:48:15;;;;;;;27.40;16.58;;;7.70;99.90;;;;;;5059669;28;20233;-80
2021/11/10 09:50:46;;;;;;;29.42;18.15;;;8.00;99.90;;;;;;5058518;28;20217;-81
2021/11/10 09:53:14;;;;;;;27.63;16.65;;;7.90;99.90;;;;;;5060747;28;20187;-79
2021/11/10 09:55:41;;;;;;;27.90;17.33;;;7.90;99.90;;;;;;5058595;28;20211;-82
2021/11/10 09:58:08;;;;;;;33.10;16.27;;;7.90;99.90;;;;;;5057613;28;20228;-78
2021/11/10 10:00:38;;;;;;;27.58;16.20;;;7.90;99.90;;;;;;5064576;28;20226;-80
2021/11/10 10:03:05;;;;;;;25.88;15.95;;;8.20;99.90;;;;;;5058788;28;20220;-80
2021/11/10 10:05:33;;;;;;;26.23;16.58;;;7.80;99.90;;;;;;5058176;28;20229;-81
2021/11/10 10:08:02;;;;;;;24.63;16.27;;;7.80;99.90;;;;;;5058367;28;20284;-84
2021/11/10 10:10:30;;;;;;;23.77;14.38;;;7.70;99.90;;;;;;5058903;28;20205;-84
2021/11/10 10:13:01;;;;;;;24.88;17.02;;;7.80;99.90;;;;;;5058866;28;20230;-87
2021/11/10 10:15:31;;;;;;;27.65;17.13;;;8.00;99.90;;;;;;5061649;28;20286;-88
2021/11/10 10:17:58;;;;;;;24.55;16.00;;;7.90;99.90;;;;;;5061459;28;20231;-88
2021/11/10 10:20:30;;;;;;;30.92;17.35;;;7.80;99.90;;;;;;5058284;28;20254;-87
2021/11/10 10:23:01;;;;;;;24.35;16.02;;;7.80;99.90;;;;;;5058314;28;20220;-88
2021/11/10 10:25:48;;;;;;;26.17;15.90;;;7.80;99.90;;;;;;5058118;28;20195;-87
2021/11/10 10:28:17;;;;;;;23.98;15.02;;;8.00;99.90;;;;;;5057648;28;20598;-88
2021/11/10 10:30:46;;;;;;;18.10;13.10;;;8.00;99.90;;;;;;5060597;28;20287;-87
2021/11/10 10:33:16;;;;;;;24.00;15.27;;;7.90;99.90;;;;;;5068526;28;20293;-87
2021/11/10 10:35:46;;;;;;;28.67;15.48;;;8.10;99.90;;;;;;5072995;28;20617;-87
2021/11/10 10:38:15;;;;;;;24.48;15.30;;;8.00;99.90;;;;;;5074452;28;20233;-87
2021/11/10 10:40:46;;;;;;;26.27;16.20;;;7.90;99.90;;;;;;5074651;28;20313;-87
2021/11/10 10:43:15;;;;;;;24.10;16.67;;;7.70;99.90;;;;;;5072149;28;20261;-88
2021/11/10 10:45:44;;;;;;;24.20;16.27;;;7.90;99.90;;;;;;5077115;28;20270;-87
2021/11/10 10:48:13;;;;;;;25.42;16.63;;;7.80;99.90;;;;;;5070710;28;20231;-87
2021/11/10 10:50:47;;;;;;;28.42;17.13;;;8.10;99.90;;;;;;5064131;28;20216;-87
2021/11/10 10:53:16;;;;;;;20.73;16.17;;;8.00;99.90;;;;;;5068750;28;20253;-87
2021/11/10 10:55:45;;;;;;;28.80;17.48;;;8.20;99.90;;;;;;5072914;28;20212;-86
2021/11/10 10:58:31;;;;;;;21.75;14.63;;;8.20;99.90;;;;;;5076229;28;20235;-86
2021/11/10 11:00:58;;;;;;;33.58;18.08;;;7.90;99.90;;;;;;5076597;28;20243;-87
2021/11/10 11:03:31;;;;;;;28.80;18.30;;;8.10;99.90;;;;;;5062682;28;20607;-83
2021/11/10 11:06:00;;;;;;;23.85;16.20;;;8.10;99.90;;;;;;5061818;28;20211;-82
2021/11/10 11:08:33;;;;;;;24.40;15.27;;;8.40;99.90;;;;;;5119628;22;20306;-79
2021/11/10 11:11:01;;;;;;;24.10;15.63;;;8.40;99.90;;;;;;5049597;28;20250;-79
2021/11/10 11:13:47;;;;;;;25.70;17.83;;;8.50;99.90;;;;;;5039970;28;20239;-77
2021/11/10 11:16:21;;;;;;;27.63;18.13;;;8.50;99.90;;;;;;5036710;28;20201;-77
2021/11/10 11:18:48;;;;;;;25.10;16.25;;;8.40;99.90;;;;;;5036215;28;20231;-78
2021/11/10 11:21:26;;;;;;;25.15;16.35;;;8.60;99.90;;;;;;5038071;28;20209;-78
2021/11/10 11:23:57;;;;;;;26.50;18.13;;;8.80;99.90;;;;;;5038570;28;20703;-78
2021/11/10 11:26:38;;;;;;;24.00;18.58;;;8.80;99.90;;;;;;5037877;28;20216;-78
2021/11/10 11:29:26;;;;;;;26.40;16.95;;;8.80;99.90;;;;;;5036072;28;20232;-78
2021/11/10 11:31:54;;;;;;;25.70;17.35;;;8.80;99.90;;;;;;5037963;28;20299;-78
2021/11/10 11:34:22;;;;;;;25.98;17.95;;;8.70;99.90;;;;;;5039730;28;20713;-78
2021/11/10 11:36:53;;;;;;;27.83;17.85;;;8.70;99.90;;;;;;5036074;28;20211;-78
2021/11/10 11:39:23;;;;;;;26.73;16.60;;;8.80;99.90;;;;;;5037527;28;20249;-79
2021/11/10 11:41:50;;;;;;;29.27;19.52;;;8.80;99.90;;;;;;5038693;28;20203;-78
2021/11/10 11:44:17;;;;;;;31.20;18.90;;;8.80;99.90;;;;;;5037865;28;20231;-78
2021/11/10 11:46:47;;;;;;;24.13;17.70;;;8.70;99.90;;;;;;5039155;28;20238;-79
2021/11/10 11:49:15;;;;;;;27.02;17.73;;;8.80;99.90;;;;;;5039240;28;20646;-79
2021/11/10 11:51:44;;;;;;;31.02;18.55;;;8.70;99.90;;;;;;5039154;28;20261;-78
2021/11/10 11:54:11;;;;;;;28.37;18.07;;;8.70;99.90;;;;;;5037352;28;20275;-77
2021/11/10 11:56:41;;;;;;;24.92;17.90;;;8.80;99.90;;;;;;5038131;28;20665;-77
2021/11/10 11:59:09;;;;;;;29.38;19.30;;;8.70;99.90;;;;;;5036637;28;20228;-77
2021/11/10 12:01:38;;;;;;;29.83;19.17;;;8.70;99.90;;;;;;5038396;28;20246;-79
2021/11/10 12:04:11;;;;;;;28.38;19.10;;;8.60;99.90;;;;;;5038682;28;20602;-78
2021/11/10 12:06:47;;;;;;;29.55;19.85;;;8.60;99.90;;;;;;5038665;28;20228;-78
2021/11/10 12:09:17;;;;;;;29.75;21.83;;;8.70;99.90;;;;;;5040404;28;20319;-79
2021/11/10 12:11:50;;;;;;;34.55;19.23;;;8.80;99.90;;;;;;5039671;28;20193;-79
2021/11/10 12:14:19;;;;;;;27.73;18.30;;;8.90;99.90;;;;;;5038010;28;20192;-79
2021/11/10 12:16:48;;;;;;;29.13;18.00;;;8.90;99.90;;;;;;5043728;28;20607;-78
2021/11/10 12:19:23;;;;;;;23.23;15.27;;;8.90;99.90;;;;;;5049604;28;20251;-77
2021/11/10 12:21:52;;;;;;;24.42;17.90;;;8.90;99.90;;;;;;5047946;28;20263;-80
2021/11/10 12:24:24;;;;;;;23.88;15.63;;;9.10;99.90;;;;;;5044448;28;20692;-79
2021/11/10 12:27:15;;;;;;;28.77;17.88;;;9.20;99.90;;;;;;5038942;28;20195;-79
2021/11/10 12:29:58;;;;;;;30.15;19.10;;;9.20;99.90;;;;;;5047572;28;20342;-79
2021/11/10 12:32:27;;;;;;;27.55;16.20;;;9.30;99.90;;;;;;5040045;28;20208;-79
2021/11/10 12:34:57;;;;;;;27.75;18.48;;;9.30;99.90;;;;;;5037961;28;20204;-79
2021/11/10 12:37:28;;;;;;;23.52;17.30;;;9.20;99.90;;;;;;5037950;28;20212;-78
2021/11/10 12:40:15;;;;;;;26.25;16.83;;;9.10;99.90;;;;;;5037738;28;20282;-80
2021/11/10 12:42:51;;;;;;;27.08;16.30;;;9.30;99.90;;;;;;5038373;28;20193;-79
2021/11/10 12:45:22;;;;;;;25.35;16.65;;;9.30;99.90;;;;;;5036817;28;20360;-78